Time;durP1;ratioP1;P1;durP2;ratioP2;P2;SDS_P1;SDS_P2;PMS_P1;PMS_P2;Temp;Humidity;BMP_temperature;BMP_pressure;BME280_temperature;BME280_humidity;BME280_pressure;Samples;Min_cycle;Max_cycle;Signal;HPM_P1;HPM_P2
2023/06/24 00:01:03;;;;;;;9.30;3.80;;;;;;;19.92;75.71;98292.00;4425512;32;20132;-78
2023/06/24 00:03:30;;;;;;;9.45;3.45;;;;;;;19.79;77.62;98293.91;4425702;32;20058;-78
2023/06/24 00:05:57;;;;;;;8.82;3.62;;;;;;;19.91;77.44;98292.94;4425740;32;20058;-78
2023/06/24 00:08:34;;;;;;;9.45;3.40;;;;;;;19.92;77.01;98293.78;4425692;32;20058;-77
2023/06/24 00:11:02;;;;;;;9.48;3.15;;;;;;;20.05;74.81;98296.28;4425902;32;20085;-78
2023/06/24 00:13:29;;;;;;;7.32;3.17;;;;;;;20.26;73.27;98310.34;4412777;32;20058;-76
2023/06/24 00:15:56;;;;;;;7.62;3.28;;;;;;;20.25;73.81;98308.66;4425739;32;20114;-78
2023/06/24 00:18:24;;;;;;;8.50;2.87;;;;;;;20.23;73.38;98303.56;4425710;32;20079;-79
2023/06/24 00:20:51;;;;;;;6.62;3.00;;;;;;;19.93;74.46;98306.75;4425494;32;20075;-77
2023/06/24 00:23:24;;;;;;;9.35;2.58;;;;;;;20.14;72.78;98298.19;4412905;32;20130;-79
2023/06/24 00:25:54;;;;;;;8.35;3.10;;;;;;;19.63;75.70;98282.91;4425588;32;20058;-78
2023/06/24 00:28:22;;;;;;;8.82;2.90;;;;;;;19.33;78.11;98273.75;4425470;32;20114;-77
2023/06/24 00:30:49;;;;;;;8.10;3.00;;;;;;;19.24;79.75;98273.59;4425665;32;20118;-78
2023/06/24 00:33:19;;;;;;;7.12;3.20;;;;;;;19.11;80.66;98262.41;4425563;32;20070;-78
2023/06/24 00:35:46;;;;;;;8.68;3.45;;;;;;;19.02;82.21;98256.88;4425505;32;20090;-77
2023/06/24 00:38:13;;;;;;;9.95;4.28;;;;;;;19.03;83.11;98231.56;4412642;32;20119;-79
2023/06/24 00:40:41;;;;;;;10.10;3.78;;;;;;;19.16;82.18;98250.66;4425582;32;20070;-79
2023/06/24 00:43:08;;;;;;;9.40;3.67;;;;;;;19.23;81.74;98243.16;4425351;32;20062;-77
2023/06/24 00:45:35;;;;;;;10.77;3.85;;;;;;;19.06;82.40;98262.75;4425494;32;20071;-79
2023/06/24 00:48:03;;;;;;;8.07;3.62;;;;;;;19.88;78.54;98287.97;4425500;32;20087;-79
2023/06/24 00:50:37;;;;;;;11.82;4.00;;;;;;;19.84;77.86;98311.84;4424822;32;20070;-79
2023/06/24 00:53:03;;;;;;;12.15;4.10;;;;;;;19.72;79.39;98308.37;4425289;32;20085;-79
2023/06/24 00:55:30;;;;;;;8.18;4.22;;;;;;;19.70;79.34;98312.09;4425371;32;20182;-77
2023/06/24 00:57:59;;;;;;;11.60;4.65;;;;;;;19.67;79.98;98297.41;4425543;32;20074;-79
2023/06/24 01:00:57;;;;;;;10.05;4.10;;;;;;;19.73;79.91;98307.44;4425464;32;20131;-78
2023/06/24 01:03:25;;;;;;;7.62;3.33;;;;;;;19.47;80.52;98296.28;4425300;32;20062;-77
2023/06/24 01:05:54;;;;;;;7.93;3.25;;;;;;;19.27;81.00;98289.94;4425399;32;20058;-78
2023/06/24 01:08:29;;;;;;;9.98;3.58;;;;;;;19.35;80.91;98295.44;4425217;32;20058;-81
2023/06/24 01:10:55;;;;;;;7.70;3.30;;;;;;;19.32;81.34;98306.09;4425219;32;20074;-77
2023/06/24 01:13:22;;;;;;;9.73;3.70;;;;;;;19.45;79.76;98310.41;4425143;32;20106;-78
2023/06/24 01:15:49;;;;;;;8.05;3.47;;;;;;;19.57;78.55;98314.78;4425423;32;20100;-78
2023/06/24 01:18:29;;;;;;;7.75;3.40;;;;;;;19.36;79.29;98309.34;4425120;32;20100;-77
2023/06/24 01:21:07;;;;;;;6.20;2.40;;;;;;;19.08;79.96;98315.78;4425349;32;20104;-78
2023/06/24 01:24:01;;;;;;;7.97;2.90;;;;;;;19.16;79.75;98309.97;4425122;32;20114;-76
2023/06/24 01:27:02;;;;;;;7.45;2.80;;;;;;;19.28;79.54;98312.53;4412605;32;20101;-78
2023/06/24 01:30:03;;;;;;;7.57;2.72;;;;;;;18.86;81.76;98311.25;4412442;32;20065;-78
2023/06/24 01:33:04;;;;;;;6.55;2.53;;;;;;;19.45;77.37;98310.41;4412338;32;20070;-77
2023/06/24 01:35:33;;;;;;;7.62;2.90;;;;;;;18.96;79.12;98298.38;4423455;32;20076;-79
2023/06/24 01:38:06;;;;;;;6.80;2.90;;;;;;;19.16;78.92;98296.91;4412077;32;20063;-77
2023/06/24 01:40:58;;;;;;;6.80;2.40;;;;;;;19.05;79.57;98289.84;4425280;32;20119;-79
2023/06/24 01:43:25;;;;;;;7.28;2.50;;;;;;;19.17;79.03;98272.41;4425259;32;20094;-79
2023/06/24 01:45:54;;;;;;;5.12;2.25;;;;;;;19.18;78.99;98282.75;4424819;32;20091;-77
2023/06/24 01:48:25;;;;;;;6.95;2.60;;;;;;;18.98;79.43;98276.38;4425150;32;20127;-78
2023/06/24 01:51:00;;;;;;;5.03;2.00;;;;;;;18.79;80.40;98273.44;4425233;32;20073;-78
2023/06/24 01:53:28;;;;;;;5.68;2.28;;;;;;;18.59;81.67;98253.09;4412110;32;20118;-77
2023/06/24 01:55:58;;;;;;;5.93;2.25;;;;;;;18.47;82.63;98255.66;4425039;32;20094;-78
2023/06/24 01:58:42;;;;;;;6.68;2.37;;;;;;;18.84;81.13;98260.88;4412059;32;20059;-80
2023/06/24 02:01:10;;;;;;;7.90;2.55;;;;;;;18.73;80.86;98245.97;4412363;32;20123;-79
2023/06/24 02:03:37;;;;;;;4.72;1.95;;;;;;;18.24;83.73;98230.34;4412065;32;20071;-78
2023/06/24 02:06:04;;;;;;;6.20;2.30;;;;;;;18.42;83.63;98226.41;4412067;32;20070;-76
2023/06/24 02:08:38;;;;;;;6.40;2.60;;;;;;;18.35;84.31;98225.19;4412114;32;20101;-80
2023/06/24 02:11:05;;;;;;;6.85;2.58;;;;;;;18.45;83.41;98236.62;4412212;32;20073;-79
2023/06/24 02:13:35;;;;;;;6.80;2.60;;;;;;;18.91;80.31;98238.53;4411870;32;20094;-77
2023/06/24 02:16:05;;;;;;;4.97;2.20;;;;;;;18.53;82.72;98248.31;4412481;32;20058;-78
2023/06/24 02:18:47;;;;;;;6.05;2.30;;;;;;;18.84;79.74;98260.03;4412344;32;20080;-80
2023/06/24 02:21:17;;;;;;;6.32;2.10;;;;;;;18.34;82.00;98265.31;4424809;32;20083;-77
2023/06/24 02:23:45;;;;;;;6.72;2.28;;;;;;;18.68;80.70;98258.53;4412156;32;20184;-78
2023/06/24 02:26:12;;;;;;;7.28;2.25;;;;;;;19.17;78.28;98278.47;4424884;32;20102;-78
2023/06/24 02:35:12;;;;;;;4.75;2.03;;;;;;;18.86;80.56;98284.28;4424633;32;20089;-77
2023/06/24 02:37:39;;;;;;;6.95;2.08;;;;;;;19.23;79.38;98295.50;4424499;32;20066;-78
2023/06/24 02:40:14;;;;;;;8.65;2.22;;;;;;;18.89;80.11;98302.34;4411985;32;20110;-79
2023/06/24 02:42:41;;;;;;;5.20;1.98;;;;;;;19.51;76.35;98296.88;4411812;32;20114;-78
2023/06/24 02:45:09;;;;;;;5.57;2.00;;;;;;;18.78;80.43;98301.34;4424745;32;20122;-79
2023/06/24 02:47:36;;;;;;;6.40;2.10;;;;;;;18.80;79.72;98303.84;4424643;32;20086;-78
2023/06/24 02:53:45;;;;;;;6.43;2.10;;;;;;;18.67;81.49;98303.91;4424574;32;20120;-78
2023/06/24 02:56:13;;;;;;;7.43;1.98;;;;;;;19.07;79.09;98307.09;4411709;32;20074;-76
2023/06/24 02:58:58;;;;;;;4.40;1.90;;;;;;;18.98;79.34;98296.47;4424509;32;20094;-79
2023/06/24 03:01:27;;;;;;;6.40;1.83;;;;;;;19.00;78.05;98286.72;4424555;32;20058;-78
2023/06/24 03:03:55;;;;;;;4.45;1.73;;;;;;;19.02;78.93;98293.50;4424050;32;20112;-77
2023/06/24 03:06:23;;;;;;;4.40;1.90;;;;;;;19.46;76.33;98299.00;4411713;32;20091;-78
2023/06/24 03:08:52;;;;;;;6.97;2.35;;;;;;;19.04;78.57;98301.25;4411395;32;20084;-76
2023/06/24 03:11:19;;;;;;;3.55;1.60;;;;;;;19.38;76.22;98299.59;4424521;32;20101;-79
2023/06/24 03:13:46;;;;;;;3.33;1.50;;;;;;;19.03;77.90;98310.03;4424360;32;20074;-79
2023/06/24 03:16:13;;;;;;;3.30;1.50;;;;;;;18.73;80.46;98311.31;4426050;32;20106;-77
2023/06/24 03:18:47;;;;;;;7.10;1.65;;;;;;;19.59;75.09;98311.09;4426035;32;20062;-79
2023/06/24 03:21:14;;;;;;;3.55;1.50;;;;;;;19.26;76.82;98313.59;4426154;32;20062;-78
2023/06/24 03:23:41;;;;;;;5.57;1.55;;;;;;;19.01;77.60;98317.16;4425902;32;20096;-77
2023/06/24 03:26:08;;;;;;;3.00;1.20;;;;;;;18.97;78.70;98303.47;4426073;32;20085;-79
2023/06/24 03:28:35;;;;;;;4.35;1.52;;;;;;;18.95;77.92;98299.31;4425795;32;20059;-79
2023/06/24 03:31:02;;;;;;;5.53;1.30;;;;;;;18.79;78.90;98307.41;4425984;32;20054;-77
2023/06/24 03:33:29;;;;;;;4.82;1.50;;;;;;;18.51;80.87;98316.37;4425972;32;20070;-78
2023/06/24 03:35:56;;;;;;;2.25;1.10;;;;;;;19.24;76.30;98321.53;4425964;32;20085;-78
2023/06/24 03:38:37;;;;;;;3.90;1.30;;;;;;;19.37;75.86;98332.78;4425617;32;20078;-80
2023/06/24 03:41:04;;;;;;;1.90;1.15;;;;;;;18.93;78.12;98327.34;4426078;32;20050;-79
2023/06/24 03:43:31;;;;;;;2.10;1.20;;;;;;;19.41;75.95;98336.00;4425925;32;20097;-78
2023/06/24 03:45:59;;;;;;;1.83;1.10;;;;;;;19.30;76.29;98335.94;4425841;32;20129;-77
2023/06/24 03:48:27;;;;;;;4.18;1.10;;;;;;;19.18;76.56;98335.06;4425938;32;20069;-79
2023/06/24 03:50:54;;;;;;;4.03;1.30;;;;;;;19.35;75.55;98336.44;4425622;32;20059;-76
2023/06/24 03:53:21;;;;;;;2.22;1.20;;;;;;;19.72;73.69;98342.41;4413078;32;20113;-78
2023/06/24 03:55:48;;;;;;;2.45;1.12;;;;;;;19.56;74.68;98347.13;4425941;32;20111;-78
2023/06/24 03:58:16;;;;;;;2.15;1.00;;;;;;;19.21;76.23;98340.06;4425745;32;20108;-77
2023/06/24 04:00:44;;;;;;;5.40;1.60;;;;;;;19.82;74.18;98334.72;4426015;32;20090;-78
2023/06/24 04:03:10;;;;;;;4.82;1.30;;;;;;;19.73;74.01;98335.41;4425763;32;20070;-78
2023/06/24 04:05:38;;;;;;;2.00;1.20;;;;;;;19.28;76.13;98353.56;4425614;32;20063;-77
2023/06/24 04:08:06;;;;;;;2.70;1.20;;;;;;;19.82;73.76;98353.88;4425900;32;20054;-78
2023/06/24 04:14:02;;;;;;;4.87;1.27;;;;;;;20.56;71.04;98372.66;4425503;32;20093;-77
2023/06/24 04:16:29;;;;;;;1.95;1.30;;;;;;;20.59;69.73;98364.53;4425734;32;20062;-79
2023/06/24 04:19:07;;;;;;;2.08;1.02;;;;;;;20.59;69.02;98353.22;4425363;32;20190;-76
2023/06/24 04:21:33;;;;;;;1.73;1.08;;;;;;;20.28;71.98;98376.53;4425808;32;20200;-79
2023/06/24 04:24:00;;;;;;;2.30;1.20;;;;;;;20.59;69.69;98366.34;4425452;32;20070;-78
2023/06/24 04:26:27;;;;;;;3.15;1.25;;;;;;;21.33;65.78;98367.38;4424480;32;20078;-77
2023/06/24 04:28:55;;;;;;;4.47;1.20;;;;;;;20.67;68.96;98392.78;4425613;32;20073;-79
2023/06/24 04:31:22;;;;;;;2.72;1.08;;;;;;;21.26;65.78;98380.16;4425594;32;20106;-79
2023/06/24 04:33:49;;;;;;;1.98;1.20;;;;;;;20.39;70.19;98392.28;4425401;32;20082;-77
2023/06/24 04:36:16;;;;;;;4.32;1.30;;;;;;;21.33;66.08;98385.75;4412748;32;20070;-80
2023/06/24 04:39:13;;;;;;;5.20;1.37;;;;;;;20.67;68.54;98396.25;4425636;32;20070;-79
2023/06/24 04:41:39;;;;;;;3.70;1.35;;;;;;;20.64;69.57;98411.38;4425320;32;20190;-77
2023/06/24 04:44:06;;;;;;;2.85;1.50;;;;;;;20.41;70.34;98407.87;4425404;32;20120;-78
2023/06/24 04:46:34;;;;;;;3.22;1.48;;;;;;;20.72;70.18;98416.84;4425534;32;20090;-79
2023/06/24 04:53:01;;;;;;;2.87;1.35;;;;;;;20.12;72.48;98405.72;4425545;32;20121;-78
2023/06/24 04:55:31;;;;;;;5.43;1.20;;;;;;;20.90;69.60;98410.16;4425410;32;20084;-77
2023/06/24 04:57:59;;;;;;;3.60;1.00;;;;;;;21.40;67.10;98414.97;4425563;32;20074;-78
2023/06/24 05:03:13;;;;;;;2.45;1.17;;;;;;;22.13;62.87;98433.41;4424929;32;20078;-77
2023/06/24 05:05:40;;;;;;;2.67;1.10;;;;;;;22.68;61.87;98430.53;4425206;32;20138;-79
2023/06/24 05:08:08;;;;;;;1.87;1.10;;;;;;;22.98;59.71;98429.69;4425367;32;20116;-77
2023/06/24 05:10:49;;;;;;;2.87;1.20;;;;;;;21.90;63.78;98416.91;4425085;32;20106;-79
2023/06/24 05:13:15;;;;;;;2.55;1.30;;;;;;;21.90;63.81;98423.94;4425248;32;20181;-79
2023/06/24 05:15:42;;;;;;;2.28;1.20;;;;;;;22.30;62.56;98431.97;4425061;32;20102;-77
2023/06/24 05:18:09;;;;;;;1.95;1.15;;;;;;;22.51;62.57;98421.44;4425208;32;20122;-79
2023/06/24 05:20:42;;;;;;;2.78;1.17;;;;;;;22.29;62.54;98427.69;4425207;32;20066;-79
2023/06/24 05:23:09;;;;;;;1.98;1.10;;;;;;;22.05;63.91;98427.09;4425090;32;20129;-77
2023/06/24 05:28:06;;;;;;;2.75;1.10;;;;;;;22.40;62.65;98424.16;4423728;32;20108;-78
2023/06/24 05:33:46;;;;;;;2.62;1.20;;;;;;;21.85;64.45;98413.00;4425303;32;20105;-78
2023/06/24 05:36:13;;;;;;;1.87;1.25;;;;;;;22.16;63.70;98413.94;4424734;32;20122;-77
2023/06/24 05:42:29;;;;;;;2.05;1.23;;;;;;;22.53;63.22;98419.50;4425125;32;20069;-79
2023/06/24 05:44:56;;;;;;;2.67;1.20;;;;;;;22.69;61.49;98413.75;4424747;32;20105;-77
2023/06/24 05:47:24;;;;;;;3.50;1.27;;;;;;;23.47;59.73;98420.06;4425027;32;20066;-78
2023/06/24 05:50:04;;;;;;;2.08;1.20;;;;;;;23.55;58.45;98415.78;4424978;32;20097;-79
2023/06/24 05:55:06;;;;;;;2.58;1.12;;;;;;;23.22;59.43;98418.78;4409580;30;20118;-79
2023/06/24 05:57:33;;;;;;;1.98;1.20;;;;;;;23.06;60.75;98428.03;4443117;27;20078;-77
2023/06/24 06:00:20;;;;;;;1.87;1.20;;;;;;;23.30;60.09;98425.06;4440333;32;20121;-79
2023/06/24 06:02:47;;;;;;;2.10;1.10;;;;;;;24.01;57.57;98435.34;4440100;32;20093;-79
2023/06/24 06:05:25;;;;;;;3.10;1.20;;;;;;;23.38;58.28;98419.91;4692366;26;20074;31
2023/06/24 06:07:53;;;;;;;1.17;0.95;;;;;;;24.27;57.20;98432.94;4581861;26;20096;-79
2023/06/24 06:12:57;;;;;;;2.08;1.20;;;;;;;23.81;56.69;98416.06;4423136;32;20062;-77
2023/06/24 06:15:24;;;;;;;3.67;1.20;;;;;;;24.61;55.42;98409.53;4888704;26;20118;-77
2023/06/24 06:17:52;;;;;;;3.08;1.52;;;;;;;24.77;54.56;98425.56;4474025;26;20084;-78
2023/06/24 06:20:52;;;;;;;4.18;1.20;;;;;;;24.42;55.59;98428.06;4442227;32;20107;-79
2023/06/24 06:25:50;;;;;;;2.35;1.30;;;;;;;24.06;56.73;98429.66;4438244;32;20176;-79
2023/06/24 06:31:13;;;;;;;1.83;1.20;;;;;;;24.00;58.51;98433.66;4616027;26;20069;-79
2023/06/24 06:33:41;;;;;;;3.92;1.60;;;;;;;24.40;56.75;98433.50;4457436;32;20106;-79
2023/06/24 06:36:08;;;;;;;3.20;1.50;;;;;;;23.47;58.50;98427.97;4638382;26;20090;-82
2023/06/24 06:38:35;;;;;;;4.00;1.40;;;;;;;23.37;59.64;98434.03;4470376;32;20092;-82
2023/06/24 06:41:02;;;;;;;3.28;1.58;;;;;;;23.36;60.45;98437.66;4470645;32;20096;-79
2023/06/24 06:43:29;;;;;;;2.40;1.40;;;;;;;22.57;62.89;98433.25;4620359;26;20097;-81
2023/06/24 06:46:09;;;;;;;4.03;1.50;;;;;;;23.38;60.79;98433.06;4852126;26;20100;31
2023/06/24 06:48:41;;;;;;;2.25;1.30;;;;;;;23.92;59.67;98444.91;4594611;26;20093;-77
2023/06/24 06:51:08;;;;;;;2.05;1.40;;;;;;;23.67;59.38;98438.41;4423964;32;20093;-79
2023/06/24 06:58:52;;;;;;;2.85;1.30;;;;;;;23.72;59.10;98443.28;4902082;26;20136;-79
2023/06/24 07:01:20;;;;;;;2.22;1.30;;;;;;;24.48;57.76;98452.06;4673990;26;20123;-78
2023/06/24 07:03:49;;;;;;;3.42;1.45;;;;;;;24.59;58.13;98452.88;5102017;26;20225;-78
2023/06/24 07:06:20;;;;;;;2.62;1.50;;;;;;;24.04;58.76;98453.53;4529532;26;20072;-80
2023/06/24 07:08:55;;;;;;;4.35;1.50;;;;;;;24.42;57.86;98460.53;4423787;32;20082;-80
2023/06/24 07:11:22;;;;;;;3.42;1.33;;;;;;;23.72;59.93;98456.44;4424338;32;20080;-79
2023/06/24 07:13:51;;;;;;;3.12;1.42;;;;;;;23.77;60.89;98456.84;4424283;32;20078;-79
2023/06/24 07:16:18;;;;;;;2.05;1.27;;;;;;;23.64;60.25;98448.41;4423842;32;20133;-78
2023/06/24 07:19:08;;;;;;;2.72;1.30;;;;;;;23.79;59.51;98452.28;4423813;32;20097;-80
2023/06/24 07:21:35;;;;;;;2.40;1.50;;;;;;;23.74;60.80;98466.84;4436569;32;20070;-78
2023/06/24 07:24:02;;;;;;;5.30;1.65;;;;;;;23.46;63.10;98468.44;4419386;32;149367;-79
2023/06/24 07:26:30;;;;;;;2.03;1.25;;;;;;;23.36;61.76;98463.97;4424282;32;20097;-79
2023/06/24 07:32:47;;;;;;;3.78;1.30;;;;;;;23.13;62.46;98466.97;4424045;32;20120;-78
2023/06/24 07:35:16;;;;;;;2.45;1.30;;;;;;;23.05;63.48;98457.94;4423980;32;20058;-79
2023/06/24 07:37:43;;;;;;;1.67;1.00;;;;;;;22.57;64.46;98470.88;4423862;32;20081;-77
2023/06/24 07:40:30;;;;;;;1.58;1.00;;;;;;;23.36;63.25;98476.31;4423939;32;20110;-79
2023/06/24 07:42:57;;;;;;;2.30;1.20;;;;;;;23.26;61.77;98468.37;4423711;32;20119;-77
2023/06/24 07:45:25;;;;;;;1.65;0.90;;;;;;;23.20;63.98;98463.69;4423544;32;20110;-80
2023/06/24 07:47:52;;;;;;;1.75;1.10;;;;;;;23.68;62.17;98465.56;4423712;32;20055;-80
2023/06/24 07:50:40;;;;;;;1.02;0.80;;;;;;;23.77;60.10;98469.19;4423561;32;20088;-77
2023/06/24 07:53:07;;;;;;;2.62;0.90;;;;;;;23.85;59.69;98490.41;4423885;32;20136;-79
2023/06/24 07:55:34;;;;;;;3.03;0.93;;;;;;;22.88;63.64;98479.66;4423774;32;20055;-79
2023/06/24 07:58:02;;;;;;;0.80;0.80;;;;;;;22.64;64.89;98481.69;4423550;32;20125;-77
2023/06/24 08:01:01;;;;;;;1.10;1.00;;;;;;;22.50;64.70;98470.56;4424298;32;20074;-78
2023/06/24 08:03:28;;;;;;;1.95;1.00;;;;;;;22.33;67.09;98475.56;4425636;32;20078;-77
2023/06/24 08:05:56;;;;;;;3.62;1.20;;;;;;;22.18;67.07;98472.44;4425470;32;20063;-79
2023/06/24 08:08:23;;;;;;;1.42;0.90;;;;;;;22.51;66.43;98481.91;4425800;32;20074;-79
2023/06/24 08:22:23;;;;;;;1.10;0.82;;;;;;;23.92;60.90;98480.97;4985609;26;20123;-79
2023/06/24 08:24:50;;;;;;;0.95;0.90;;;;;;;23.78;61.71;98487.50;4445729;32;20092;-78
2023/06/24 08:30:44;;;;;;;0.80;0.80;;;;;;;23.81;61.46;98497.75;4479789;26;20109;-79
2023/06/24 08:33:11;;;;;;;1.27;0.88;;;;;;;22.91;63.87;98481.16;4471765;32;20127;-78
2023/06/24 08:35:38;;;;;;;1.40;0.90;;;;;;;22.75;63.96;98477.19;4472059;32;20069;-79
2023/06/24 08:38:05;;;;;;;1.15;0.77;;;;;;;22.75;65.60;98490.34;4471639;32;20106;-79
2023/06/24 08:40:57;;;;;;;0.80;0.80;;;;;;;23.62;62.68;98490.69;4471630;32;20080;-79
2023/06/24 08:43:24;;;;;;;2.25;0.90;;;;;;;23.06;63.57;98485.09;4471840;32;20117;-78
2023/06/24 08:52:41;;;;;;;2.30;0.82;;;;;;;22.40;66.84;98495.97;4471754;32;20088;-80
2023/06/24 08:55:10;;;;;;;1.65;1.10;;;;;;;22.23;67.07;98493.94;4456199;32;20090;-80
2023/06/24 08:57:37;;;;;;;0.90;0.90;;;;;;;22.68;65.77;98478.69;4456166;32;20086;-79
2023/06/24 09:00:12;;;;;;;2.12;1.10;;;;;;;22.51;66.79;98469.59;4456002;32;20072;-78
2023/06/24 09:02:39;;;;;;;1.30;1.00;;;;;;;22.07;68.50;98498.78;4476106;26;20075;-80
2023/06/24 09:05:07;;;;;;;2.67;1.20;;;;;;;22.57;66.03;98493.72;4471703;32;20114;-80
2023/06/24 09:07:34;;;;;;;1.27;1.00;;;;;;;22.52;65.80;98486.19;4471457;32;20077;-78
2023/06/24 09:10:57;;;;;;;1.62;1.00;;;;;;;22.37;65.86;98479.63;4471691;32;20062;-80
2023/06/24 09:13:37;;;;;;;1.50;1.08;;;;;;;21.83;69.05;98491.09;4470955;32;20057;-80
2023/06/24 09:16:14;;;;;;;1.33;0.80;;;;;;;21.70;69.27;98486.00;4458565;32;20121;-80
2023/06/24 09:22:28;;;;;;;1.35;1.00;;;;;;;23.22;65.39;98490.69;4471452;32;20088;-78
2023/06/24 09:24:55;;;;;;;1.10;0.90;;;;;;;23.16;64.51;98493.03;4471657;32;20076;-79
2023/06/24 09:27:23;;;;;;;1.95;1.00;;;;;;;22.94;64.04;98489.63;4471508;32;20089;-80
2023/06/24 09:29:51;;;;;;;1.95;1.00;;;;;;;22.43;66.30;98485.19;4471433;32;20116;-80
2023/06/24 09:32:18;;;;;;;1.87;1.10;;;;;;;22.85;65.18;98497.47;4458372;32;20109;-79
2023/06/24 09:34:45;;;;;;;1.33;1.00;;;;;;;22.84;65.20;98488.75;4555060;26;20065;-78
2023/06/24 09:37:23;;;;;;;1.37;0.90;;;;;;;23.27;63.20;98491.13;4485551;26;20128;-78
2023/06/24 09:39:50;;;;;;;2.12;1.30;;;;;;;23.10;64.95;98486.50;4511514;26;20120;-80
2023/06/24 09:42:32;;;;;;;1.15;1.00;;;;;;;23.65;61.22;98482.50;4681489;26;20061;31
2023/06/24 09:47:43;;;;;;;1.48;1.10;;;;;;;24.48;59.09;98446.78;4910596;26;20095;-78
2023/06/24 09:50:10;;;;;;;1.20;0.95;;;;;;;24.86;58.70;98494.28;4759665;26;20057;-78
2023/06/24 09:52:38;;;;;;;1.45;1.00;;;;;;;25.00;56.89;98488.56;4566641;26;20078;-79
2023/06/24 09:55:06;;;;;;;1.25;1.00;;;;;;;24.70;55.68;98484.34;4425055;32;20098;-79
2023/06/24 09:57:35;;;;;;;1.83;1.08;;;;;;;24.14;58.38;98471.97;4622257;26;20104;-78
2023/06/24 10:00:07;;;;;;;2.10;1.12;;;;;;;23.53;61.06;98486.19;4445879;32;20064;-78
2023/06/24 10:05:08;;;;;;;1.08;0.98;;;;;;;24.11;60.54;98495.94;4438722;32;20077;-79
2023/06/24 10:07:36;;;;;;;3.47;1.25;;;;;;;23.94;59.54;98474.63;4501680;26;20078;-81
2023/06/24 10:12:35;;;;;;;1.55;1.10;;;;;;;24.22;59.09;98478.16;4438728;32;20070;-78
2023/06/24 10:15:03;;;;;;;1.90;1.20;;;;;;;23.93;61.25;98483.50;4440269;32;20102;-79
2023/06/24 10:17:30;;;;;;;1.85;1.17;;;;;;;24.35;58.76;98469.16;4551413;26;20121;-81
2023/06/24 10:20:03;;;;;;;1.25;1.10;;;;;;;24.29;59.22;98477.63;4457934;32;20078;-79
2023/06/24 10:22:31;;;;;;;2.33;1.08;;;;;;;24.01;60.63;98477.50;4588884;26;20068;-80
2023/06/24 10:25:05;;;;;;;2.60;1.20;;;;;;;24.34;60.83;98486.78;4720218;26;20056;-78
2023/06/24 10:27:39;;;;;;;2.92;1.20;;;;;;;24.10;61.46;98483.75;4555288;26;20082;-79
2023/06/24 10:30:07;;;;;;;4.18;1.60;;;;;;;23.97;61.06;98484.03;4531749;26;20078;-79
2023/06/24 10:32:42;;;;;;;1.37;1.10;;;;;;;24.80;59.05;98479.88;4623132;26;20053;-79
2023/06/24 10:37:58;;;;;;;1.65;1.25;;;;;;;24.90;57.35;98491.22;4826855;26;20076;31
2023/06/24 10:40:38;;;;;;;1.70;1.17;;;;;;;24.73;58.47;98486.69;4453793;32;20103;-80
2023/06/24 10:43:24;;;;;;;1.90;1.20;;;;;;;24.96;58.67;98485.34;4455088;32;20062;-79
2023/06/24 10:45:55;;;;;;;1.80;1.30;;;;;;;23.83;60.42;98472.12;4454902;32;20105;-78
2023/06/24 10:48:22;;;;;;;3.17;1.30;;;;;;;24.17;59.63;98463.75;4455316;32;20113;-80
2023/06/24 10:50:49;;;;;;;2.55;1.23;;;;;;;23.66;61.49;98470.16;4455164;32;20105;-79
2023/06/24 10:53:18;;;;;;;3.50;1.40;;;;;;;23.73;61.78;98478.34;4455067;32;20078;-78
2023/06/24 10:55:46;;;;;;;2.42;1.50;;;;;;;24.23;59.72;98466.66;4455253;32;20097;-80
2023/06/24 10:58:15;;;;;;;1.90;1.30;;;;;;;23.39;61.52;98483.94;4455312;32;20080;-79
2023/06/24 11:00:52;;;;;;;2.62;1.30;;;;;;;24.13;60.13;98489.56;4455112;32;20082;-80
2023/06/24 11:03:20;;;;;;;;;;;;;;;23.97;60.67;98483.19;4455435;32;20057;-80
2023/06/24 11:05:48;;;;;;;2.97;1.60;;;;;;;23.79;61.77;98477.78;4455103;32;19982;-80
2023/06/24 11:08:15;;;;;;;2.85;1.52;;;;;;;23.40;63.12;98469.00;4455012;32;20121;-79
2023/06/24 11:10:51;;;;;;;3.03;1.77;;;;;;;23.09;64.81;98485.69;4455259;32;20081;-80
2023/06/24 11:13:20;;;;;;;3.55;1.85;;;;;;;23.25;64.91;98486.97;4454922;32;20069;-78
2023/06/24 11:15:47;;;;;;;2.05;1.50;;;;;;;23.44;64.28;98489.63;4545005;26;20057;-80
2023/06/24 11:18:15;;;;;;;3.83;1.90;;;;;;;22.92;66.43;98488.94;4457454;32;20114;-80
2023/06/24 11:23:17;;;;;;;5.18;2.10;;;;;;;22.88;65.71;98477.00;4478087;26;20090;-79
2023/06/24 11:25:45;;;;;;;2.87;1.62;;;;;;;23.32;65.24;98470.50;4470460;32;20121;-80
2023/06/24 11:28:17;;;;;;;4.40;1.55;;;;;;;24.12;62.18;98465.97;4470053;32;20129;-78
2023/06/24 11:30:48;;;;;;;4.18;1.75;;;;;;;24.10;61.32;98466.12;4457892;32;20084;-80
2023/06/24 11:33:26;;;;;;;3.05;1.58;;;;;;;24.83;60.49;98457.62;4470249;32;20102;-80
2023/06/24 11:35:53;;;;;;;3.10;1.85;;;;;;;25.48;58.42;98450.50;4520021;26;20120;-80
2023/06/24 11:38:21;;;;;;;3.62;1.83;;;;;;;25.15;57.07;98433.47;4472150;32;20117;-80
2023/06/24 11:40:48;;;;;;;2.50;1.62;;;;;;;25.12;58.16;98446.97;4472293;32;20105;-79
2023/06/24 11:43:15;;;;;;;3.30;1.80;;;;;;;25.06;58.70;98451.03;4471954;32;20102;-78
2023/06/24 11:45:42;;;;;;;2.70;1.70;;;;;;;24.30;59.74;98437.09;4472415;32;20057;-80
2023/06/24 11:48:09;;;;;;;5.28;2.17;;;;;;;23.98;62.80;98453.25;4471978;32;20065;-78
2023/06/24 11:50:40;;;;;;;4.47;1.85;;;;;;;24.22;60.75;98440.44;4472119;32;20086;-80
2023/06/24 11:53:07;;;;;;;3.55;2.03;;;;;;;24.19;61.05;98449.47;4472198;32;20066;-80
2023/06/24 11:55:34;;;;;;;4.95;1.87;;;;;;;23.93;62.25;98451.03;4472025;32;20122;-78
2023/06/24 11:58:04;;;;;;;6.55;2.10;;;;;;;23.58;63.35;98451.53;4472032;32;20069;-79
2023/06/24 12:04:13;;;;;;;4.57;1.92;;;;;;;24.74;59.94;98456.69;4471929;32;20099;-78
2023/06/24 12:06:41;;;;;;;3.78;2.00;;;;;;;24.16;61.27;98448.94;4472053;32;20110;-79
2023/06/24 12:09:30;;;;;;;3.92;1.80;;;;;;;25.03;58.92;98446.03;4471843;32;20070;-78
2023/06/24 12:11:57;;;;;;;4.93;2.00;;;;;;;25.69;56.10;98440.47;4472115;32;20117;-79
2023/06/24 12:14:24;;;;;;;3.72;1.85;;;;;;;24.91;58.95;98441.91;4472069;32;20061;-79
2023/06/24 12:16:51;;;;;;;3.92;1.70;;;;;;;24.88;59.10;98427.19;4471774;32;20106;-78
2023/06/24 12:22:47;;;;;;;3.22;1.60;;;;;;;24.51;59.62;98429.84;4586849;26;20084;-81
2023/06/24 12:25:16;;;;;;;4.00;1.70;;;;;;;25.05;58.92;98426.44;4569608;26;20073;-80
2023/06/24 12:30:20;;;;;;;4.68;2.00;;;;;;;24.84;59.56;98435.56;4634322;26;20113;-78
2023/06/24 12:38:11;;;;;;;4.32;1.90;;;;;;;26.39;54.72;98428.19;4686322;26;20069;-78
2023/06/24 12:40:58;;;;;;;4.15;2.15;;;;;;;26.39;53.93;98430.81;4471647;32;20125;-79
2023/06/24 12:43:24;;;;;;;5.62;1.90;;;;;;;25.13;57.11;98419.59;4471783;32;20081;-79
2023/06/24 12:45:52;;;;;;;5.45;2.10;;;;;;;25.14;57.54;98426.53;4471533;32;20072;-78
2023/06/24 12:48:19;;;;;;;4.03;1.90;;;;;;;25.61;57.57;98430.63;4470776;32;20116;-79
2023/06/24 12:50:47;;;;;;;2.92;1.80;;;;;;;26.22;54.51;98436.94;4471813;32;20128;-79
2023/06/24 12:53:15;;;;;;;4.93;2.05;;;;;;;26.24;55.15;98429.69;4471448;32;20078;-78
2023/06/24 12:58:23;;;;;;;6.80;1.90;;;;;;;26.43;54.71;98441.91;4789306;26;20112;-78
2023/06/24 13:00:50;;;;;;;3.08;1.60;;;;;;;26.45;53.40;98448.69;4471805;32;20126;-79
2023/06/24 13:03:17;;;;;;;4.47;1.98;;;;;;;25.14;57.28;98437.09;4471501;32;20361;-79
2023/06/24 13:05:44;;;;;;;5.15;2.10;;;;;;;25.26;57.56;98425.34;4471413;32;20098;-77
2023/06/24 13:08:11;;;;;;;5.80;2.15;;;;;;;25.07;58.05;98428.94;4471771;32;20085;-79
2023/06/24 13:10:56;;;;;;;3.97;1.77;;;;;;;25.73;56.01;98438.37;4471588;32;20115;-79
2023/06/24 13:13:24;;;;;;;3.40;1.87;;;;;;;25.07;57.41;98442.97;4471508;32;20098;-77
2023/06/24 13:15:51;;;;;;;6.05;2.03;;;;;;;25.46;56.67;98433.97;4471808;32;20101;-79
2023/06/24 13:18:19;;;;;;;3.53;1.77;;;;;;;25.07;58.46;98437.69;4471515;32;20110;-79
2023/06/24 13:20:46;;;;;;;5.00;1.80;;;;;;;24.36;60.11;98432.13;4471145;32;20069;-77
2023/06/24 13:23:14;;;;;;;3.95;1.80;;;;;;;25.16;60.88;98427.22;4471305;32;20097;-79
2023/06/24 13:25:41;;;;;;;4.18;1.90;;;;;;;25.28;59.47;98434.78;4606391;26;20057;-79
2023/06/24 13:28:08;;;;;;;3.97;2.10;;;;;;;24.88;58.46;98421.91;4520068;26;20102;-79
2023/06/24 13:30:36;;;;;;;4.50;1.80;;;;;;;25.31;58.34;98429.22;4538935;26;20103;-77
2023/06/24 13:33:03;;;;;;;6.12;1.87;;;;;;;25.08;58.69;98431.41;5155573;26;20055;-81
2023/06/24 13:35:30;;;;;;;4.07;1.87;;;;;;;25.06;59.26;98430.72;4471297;32;20106;-78